sensor_id;sensor_type;location;lat;lon;timestamp;pressure;altitude;pressure_sealevel;temperature;humidity
12973;BME280;6551;51.056;9.466;2023-11-21T00:01:02;96932.13;;;13.06;68.78
12973;BME280;6551;51.056;9.466;2023-11-21T00:03:30;96937.88;;;13.15;69.19
12973;BME280;6551;51.056;9.466;2023-11-21T00:05:56;96940.81;;;13.13;68.92
12973;BME280;6551;51.056;9.466;2023-11-21T00:08:22;96938.19;;;13.18;68.90
12973;BME280;6551;51.056;9.466;2023-11-21T00:10:47;96940.06;;;13.23;68.86
12973;BME280;6551;51.056;9.466;2023-11-21T00:13:14;96946.03;;;13.30;69.14
12973;BME280;6551;51.056;9.466;2023-11-21T00:15:39;96939.88;;;13.29;68.72
12973;BME280;6551;51.056;9.466;2023-11-21T00:18:06;96937.34;;;13.18;69.02
12973;BME280;6551;51.056;9.466;2023-11-21T00:20:32;96939.50;;;13.16;69.43
12973;BME280;6551;51.056;9.466;2023-11-21T00:22:58;96935.22;;;13.20;69.68
12973;BME280;6551;51.056;9.466;2023-11-21T00:25:25;96936.53;;;13.17;69.79
12973;BME280;6551;51.056;9.466;2023-11-21T00:27:50;96939.78;;;13.19;69.95
12973;BME280;6551;51.056;9.466;2023-11-21T00:30:16;96941.19;;;13.27;69.52
12973;BME280;6551;51.056;9.466;2023-11-21T00:32:42;96940.94;;;13.28;69.67
12973;BME280;6551;51.056;9.466;2023-11-21T00:35:08;96943.41;;;13.35;69.53
12973;BME280;6551;51.056;9.466;2023-11-21T00:37:33;96942.28;;;13.31;69.64
12973;BME280;6551;51.056;9.466;2023-11-21T00:39:59;96944.47;;;13.34;69.68
12973;BME280;6551;51.056;9.466;2023-11-21T00:42:25;96946.63;;;13.37;69.89
12973;BME280;6551;51.056;9.466;2023-11-21T00:44:50;96944.53;;;13.44;69.55
12973;BME280;6551;51.056;9.466;2023-11-21T00:47:16;96951.03;;;13.53;69.50
12973;BME280;6551;51.056;9.466;2023-11-21T00:49:42;96953.53;;;13.60;69.55
12973;BME280;6551;51.056;9.466;2023-11-21T00:52:08;96954.34;;;13.60;69.55
12973;BME280;6551;51.056;9.466;2023-11-21T00:54:33;96951.41;;;13.67;69.66
12973;BME280;6551;51.056;9.466;2023-11-21T00:56:59;96959.25;;;13.73;69.35
12973;BME280;6551;51.056;9.466;2023-11-21T00:59:25;96957.88;;;13.71;68.55
12973;BME280;6551;51.056;9.466;2023-11-21T01:01:51;96957.06;;;13.70;68.64
12973;BME280;6551;51.056;9.466;2023-11-21T01:04:16;96959.25;;;13.73;68.96
12973;BME280;6551;51.056;9.466;2023-11-21T01:06:42;96962.50;;;13.80;69.04
12973;BME280;6551;51.056;9.466;2023-11-21T01:09:08;96957.97;;;13.81;68.50
12973;BME280;6551;51.056;9.466;2023-11-21T01:11:35;96959.63;;;13.87;68.33
12973;BME280;6551;51.056;9.466;2023-11-21T01:14:02;96968.44;;;13.82;68.09
12973;BME280;6551;51.056;9.466;2023-11-21T01:16:29;96970.84;;;13.84;68.45
12973;BME280;6551;51.056;9.466;2023-11-21T01:18:54;96965.78;;;13.87;68.33
12973;BME280;6551;51.056;9.466;2023-11-21T01:21:20;96956.72;;;13.93;68.50
12973;BME280;6551;51.056;9.466;2023-11-21T01:23:45;96973.34;;;13.95;68.38
12973;BME280;6551;51.056;9.466;2023-11-21T01:26:12;96975.50;;;13.98;68.17
12973;BME280;6551;51.056;9.466;2023-11-21T01:28:38;96976.84;;;14.01;68.37
12973;BME280;6551;51.056;9.466;2023-11-21T01:31:04;96972.28;;;13.96;67.55
12973;BME280;6551;51.056;9.466;2023-11-21T01:33:29;96969.34;;;13.98;67.39
12973;BME280;6551;51.056;9.466;2023-11-21T01:35:55;96980.84;;;13.98;67.81
12973;BME280;6551;51.056;9.466;2023-11-21T01:38:21;96976.53;;;13.97;67.99
12973;BME280;6551;51.056;9.466;2023-11-21T01:40:47;96974.97;;;13.96;67.80
12973;BME280;6551;51.056;9.466;2023-11-21T01:43:13;96972.00;;;13.98;67.88
12973;BME280;6551;51.056;9.466;2023-11-21T01:45:39;96974.41;;;13.99;67.79
12973;BME280;6551;51.056;9.466;2023-11-21T01:48:05;96967.78;;;14.02;67.60
12973;BME280;6551;51.056;9.466;2023-11-21T01:50:33;96975.00;;;14.01;67.20
12973;BME280;6551;51.056;9.466;2023-11-21T01:52:59;96983.72;;;13.92;67.44
12973;BME280;6551;51.056;9.466;2023-11-21T01:55:27;96984.81;;;13.91;67.55
12973;BME280;6551;51.056;9.466;2023-11-21T01:57:54;96989.59;;;13.89;67.53
12973;BME280;6551;51.056;9.466;2023-11-21T02:00:20;96986.06;;;13.83;67.38
12973;BME280;6551;51.056;9.466;2023-11-21T02:02:47;96986.34;;;13.82;67.23
12973;BME280;6551;51.056;9.466;2023-11-21T02:05:18;96984.41;;;13.77;67.09
12973;BME280;6551;51.056;9.466;2023-11-21T02:07:44;96985.38;;;13.66;66.98
12973;BME280;6551;51.056;9.466;2023-11-21T02:10:11;96980.00;;;13.61;66.82
12973;BME280;6551;51.056;9.466;2023-11-21T02:12:41;96985.56;;;13.55;66.53
12973;BME280;6551;51.056;9.466;2023-11-21T02:15:12;96986.28;;;13.45;66.75
12973;BME280;6551;51.056;9.466;2023-11-21T02:17:42;96995.53;;;13.32;66.89
12973;BME280;6551;51.056;9.466;2023-11-21T02:20:13;96993.53;;;13.23;67.36
12973;BME280;6551;51.056;9.466;2023-11-21T02:22:56;96994.34;;;13.23;67.55
12973;BME280;6551;51.056;9.466;2023-11-21T02:25:26;96998.47;;;13.09;67.49
12973;BME280;6551;51.056;9.466;2023-11-21T02:27:57;96997.94;;;13.07;67.73
12973;BME280;6551;51.056;9.466;2023-11-21T02:30:24;97004.47;;;13.00;67.64
12973;BME280;6551;51.056;9.466;2023-11-21T02:33:02;97003.09;;;12.97;67.72
12973;BME280;6551;51.056;9.466;2023-11-21T02:35:27;97001.38;;;12.86;67.71
12973;BME280;6551;51.056;9.466;2023-11-21T02:37:54;97003.50;;;12.84;67.52
12973;BME280;6551;51.056;9.466;2023-11-21T02:40:20;97007.22;;;12.83;68.15
12973;BME280;6551;51.056;9.466;2023-11-21T02:42:50;97007.78;;;12.85;68.25
12973;BME280;6551;51.056;9.466;2023-11-21T02:45:20;97004.81;;;12.81;68.43
12973;BME280;6551;51.056;9.466;2023-11-21T02:47:49;97012.28;;;12.79;68.27
12973;BME280;6551;51.056;9.466;2023-11-21T02:50:15;97005.91;;;12.85;68.50
12973;BME280;6551;51.056;9.466;2023-11-21T02:52:41;97011.44;;;12.79;68.50
12973;BME280;6551;51.056;9.466;2023-11-21T02:55:07;97012.00;;;12.81;68.30
12973;BME280;6551;51.056;9.466;2023-11-21T02:57:33;97010.19;;;12.86;68.74
12973;BME280;6551;51.056;9.466;2023-11-21T02:59:59;97011.84;;;12.87;68.59
12973;BME280;6551;51.056;9.466;2023-11-21T03:02:25;97010.56;;;12.95;68.75
12973;BME280;6551;51.056;9.466;2023-11-21T03:04:51;97016.78;;;13.01;68.76
12973;BME280;6551;51.056;9.466;2023-11-21T03:07:17;97008.63;;;13.07;69.35
12973;BME280;6551;51.056;9.466;2023-11-21T03:09:45;97016.78;;;13.22;69.61
12973;BME280;6551;51.056;9.466;2023-11-21T03:12:11;97015.25;;;13.26;69.19
12973;BME280;6551;51.056;9.466;2023-11-21T03:14:39;97014.47;;;13.31;68.95
12973;BME280;6551;51.056;9.466;2023-11-21T03:17:04;97011.06;;;13.35;68.86
12973;BME280;6551;51.056;9.466;2023-11-21T03:19:31;97018.50;;;13.33;68.37
12973;BME280;6551;51.056;9.466;2023-11-21T03:21:56;97027.00;;;13.25;68.24
12973;BME280;6551;51.056;9.466;2023-11-21T03:24:22;97028.06;;;13.24;68.09
12973;BME280;6551;51.056;9.466;2023-11-21T03:26:48;97033.66;;;13.23;68.27
12973;BME280;6551;51.056;9.466;2023-11-21T03:29:14;97038.44;;;13.21;68.11
12973;BME280;6551;51.056;9.466;2023-11-21T03:31:40;97041.13;;;13.21;68.15
12973;BME280;6551;51.056;9.466;2023-11-21T03:34:06;97038.94;;;13.18;68.27
12973;BME280;6551;51.056;9.466;2023-11-21T03:36:32;97047.63;;;13.08;68.44
12973;BME280;6551;51.056;9.466;2023-11-21T03:38:57;97046.03;;;13.07;68.47
12973;BME280;6551;51.056;9.466;2023-11-21T03:41:23;97048.50;;;13.14;67.80
12973;BME280;6551;51.056;9.466;2023-11-21T03:43:49;97047.72;;;13.13;68.27
12973;BME280;6551;51.056;9.466;2023-11-21T03:46:14;97046.84;;;13.08;68.41
12973;BME280;6551;51.056;9.466;2023-11-21T03:48:40;97055.69;;;12.91;67.98
12973;BME280;6551;51.056;9.466;2023-11-21T03:51:06;97055.06;;;12.84;68.39
12973;BME280;6551;51.056;9.466;2023-11-21T03:53:32;97056.38;;;12.82;68.45
12973;BME280;6551;51.056;9.466;2023-11-21T03:55:57;97056.94;;;12.84;68.20
12973;BME280;6551;51.056;9.466;2023-11-21T03:58:23;97054.19;;;12.79;68.20
12973;BME280;6551;51.056;9.466;2023-11-21T04:00:49;97057.59;;;12.74;67.78
12973;BME280;6551;51.056;9.466;2023-11-21T04:03:15;97055.72;;;12.75;68.18
12973;BME280;6551;51.056;9.466;2023-11-21T04:05:41;97055.72;;;12.75;69.17
12973;BME280;6551;51.056;9.466;2023-11-21T04:08:07;97061.47;;;12.83;69.41
12973;BME280;6551;51.056;9.466;2023-11-21T04:10:32;97061.53;;;12.88;69.40
12973;BME280;6551;51.056;9.466;2023-11-21T04:12:58;97062.34;;;12.89;69.46
12973;BME280;6551;51.056;9.466;2023-11-21T04:15:27;97070.94;;;12.91;69.21
12973;BME280;6551;51.056;9.466;2023-11-21T04:17:52;97059.34;;;12.85;69.12
12973;BME280;6551;51.056;9.466;2023-11-21T04:20:18;97069.53;;;12.88;68.53
12973;BME280;6551;51.056;9.466;2023-11-21T04:22:44;97058.41;;;12.75;68.45
12973;BME280;6551;51.056;9.466;2023-11-21T04:25:11;97061.28;;;12.68;68.33
12973;BME280;6551;51.056;9.466;2023-11-21T04:27:42;97065.31;;;12.71;68.22
12973;BME280;6551;51.056;9.466;2023-11-21T04:30:12;97060.63;;;12.61;68.25
12973;BME280;6551;51.056;9.466;2023-11-21T04:32:38;97067.53;;;12.57;68.45
12973;BME280;6551;51.056;9.466;2023-11-21T04:35:10;97078.38;;;12.51;69.13
12973;BME280;6551;51.056;9.466;2023-11-21T04:37:36;97078.63;;;12.49;69.17
12973;BME280;6551;51.056;9.466;2023-11-21T04:40:02;97088.16;;;12.45;69.10
12973;BME280;6551;51.056;9.466;2023-11-21T04:42:34;97097.69;;;12.58;69.65
12973;BME280;6551;51.056;9.466;2023-11-21T04:45:01;97095.84;;;12.58;69.39
12973;BME280;6551;51.056;9.466;2023-11-21T04:47:27;97102.00;;;12.59;69.14
12973;BME280;6551;51.056;9.466;2023-11-21T04:49:52;97092.44;;;12.63;69.49
12973;BME280;6551;51.056;9.466;2023-11-21T04:52:19;97093.06;;;12.70;69.51
12973;BME280;6551;51.056;9.466;2023-11-21T04:54:45;97097.09;;;12.72;69.68
12973;BME280;6551;51.056;9.466;2023-11-21T04:57:11;97107.47;;;12.69;69.08
12973;BME280;6551;51.056;9.466;2023-11-21T04:59:37;97099.56;;;12.57;69.00
12973;BME280;6551;51.056;9.466;2023-11-21T05:02:03;97106.59;;;12.47;69.27
12973;BME280;6551;51.056;9.466;2023-11-21T05:04:30;97099.41;;;12.30;69.42
12973;BME280;6551;51.056;9.466;2023-11-21T05:06:56;97109.69;;;12.39;70.00
12973;BME280;6551;51.056;9.466;2023-11-21T05:09:22;97116.41;;;12.41;70.26
12973;BME280;6551;51.056;9.466;2023-11-21T05:11:47;97116.50;;;12.29;69.42
12973;BME280;6551;51.056;9.466;2023-11-21T05:14:13;97119.41;;;12.28;69.63
12973;BME280;6551;51.056;9.466;2023-11-21T05:16:40;97127.06;;;12.24;69.75
12973;BME280;6551;51.056;9.466;2023-11-21T05:19:05;97122.06;;;12.11;69.42
12973;BME280;6551;51.056;9.466;2023-11-21T05:21:32;97118.03;;;12.09;69.56
12973;BME280;6551;51.056;9.466;2023-11-21T05:23:58;97124.31;;;12.03;69.28
12973;BME280;6551;51.056;9.466;2023-11-21T05:26:24;97135.72;;;11.98;69.01
12973;BME280;6551;51.056;9.466;2023-11-21T05:28:50;97127.78;;;11.87;68.72
12973;BME280;6551;51.056;9.466;2023-11-21T05:31:17;97146.69;;;11.85;68.58
12973;BME280;6551;51.056;9.466;2023-11-21T05:33:43;97141.00;;;11.42;68.62
12973;BME280;6551;51.056;9.466;2023-11-21T05:36:09;97151.84;;;11.35;69.06
12973;BME280;6551;51.056;9.466;2023-11-21T05:38:36;97147.56;;;11.23;68.72
12973;BME280;6551;51.056;9.466;2023-11-21T05:41:02;97161.25;;;11.14;69.34
12973;BME280;6551;51.056;9.466;2023-11-21T05:43:29;97149.22;;;11.00;69.10
12973;BME280;6551;51.056;9.466;2023-11-21T05:45:56;97162.19;;;10.97;69.02
12973;BME280;6551;51.056;9.466;2023-11-21T05:48:22;97162.09;;;10.92;69.46
12973;BME280;6551;51.056;9.466;2023-11-21T05:50:49;97165.09;;;10.95;69.90
12973;BME280;6551;51.056;9.466;2023-11-21T05:53:15;97173.44;;;10.99;69.92
12973;BME280;6551;51.056;9.466;2023-11-21T05:55:42;97165.81;;;10.91;70.04
12973;BME280;6551;51.056;9.466;2023-11-21T05:58:08;97166.47;;;10.98;70.21
12973;BME280;6551;51.056;9.466;2023-11-21T06:00:34;97167.28;;;10.98;70.31
12973;BME280;6551;51.056;9.466;2023-11-21T06:03:00;97168.09;;;11.10;70.87
12973;BME280;6551;51.056;9.466;2023-11-21T06:05:26;97174.78;;;11.25;70.54
12973;BME280;6551;51.056;9.466;2023-11-21T06:07:54;97179.16;;;11.31;70.59
12973;BME280;6551;51.056;9.466;2023-11-21T06:10:21;97181.47;;;11.39;70.27
12973;BME280;6551;51.056;9.466;2023-11-21T06:12:47;97181.47;;;11.39;70.88
12973;BME280;6551;51.056;9.466;2023-11-21T06:15:14;97180.63;;;11.50;70.73
12973;BME280;6551;51.056;9.466;2023-11-21T06:17:41;97180.97;;;11.53;70.74
12973;BME280;6551;51.056;9.466;2023-11-21T06:20:09;97184.47;;;11.54;70.91
12973;BME280;6551;51.056;9.466;2023-11-21T06:22:38;97196.03;;;11.71;71.15
12973;BME280;6551;51.056;9.466;2023-11-21T06:25:06;97196.22;;;11.81;71.14
12973;BME280;6551;51.056;9.466;2023-11-21T06:27:46;97197.81;;;11.94;70.92
12973;BME280;6551;51.056;9.466;2023-11-21T06:30:17;97210.56;;;11.92;70.87
12973;BME280;6551;51.056;9.466;2023-11-21T06:32:44;97203.25;;;11.99;70.78
12973;BME280;6551;51.056;9.466;2023-11-21T06:35:11;97213.91;;;11.99;70.63
12973;BME280;6551;51.056;9.466;2023-11-21T06:37:37;97215.28;;;12.01;70.88
12973;BME280;6551;51.056;9.466;2023-11-21T06:40:04;97211.81;;;12.01;71.03
12973;BME280;6551;51.056;9.466;2023-11-21T06:42:30;97217.19;;;12.17;71.19
12973;BME280;6551;51.056;9.466;2023-11-21T06:44:56;97219.59;;;12.19;70.80
12973;BME280;6551;51.056;9.466;2023-11-21T06:47:23;97212.38;;;12.03;71.06
12973;BME280;6551;51.056;9.466;2023-11-21T06:49:53;97216.78;;;11.97;71.49
12973;BME280;6551;51.056;9.466;2023-11-21T06:52:19;97229.06;;;12.10;71.42
12973;BME280;6551;51.056;9.466;2023-11-21T06:54:47;97218.94;;;12.12;71.31
12973;BME280;6551;51.056;9.466;2023-11-21T06:57:13;97223.34;;;12.18;71.48
12973;BME280;6551;51.056;9.466;2023-11-21T06:59:38;97230.94;;;12.26;71.55
12973;BME280;6551;51.056;9.466;2023-11-21T07:02:04;97231.53;;;12.28;71.39
12973;BME280;6551;51.056;9.466;2023-11-21T07:04:41;97232.34;;;12.45;71.10
12973;BME280;6551;51.056;9.466;2023-11-21T07:07:06;97237.44;;;12.47;71.31
12973;BME280;6551;51.056;9.466;2023-11-21T07:09:32;97232.53;;;12.55;71.49
12973;BME280;6551;51.056;9.466;2023-11-21T07:11:58;97239.44;;;12.68;71.40
12973;BME280;6551;51.056;9.466;2023-11-21T07:14:24;97246.47;;;12.74;70.93
12973;BME280;6551;51.056;9.466;2023-11-21T07:16:49;97255.94;;;12.81;71.13
12973;BME280;6551;51.056;9.466;2023-11-21T07:19:16;97259.34;;;12.60;70.19
12973;BME280;6551;51.056;9.466;2023-11-21T07:21:42;97261.50;;;12.80;70.24
12973;BME280;6551;51.056;9.466;2023-11-21T07:24:08;97274.56;;;12.76;70.02
12973;BME280;6551;51.056;9.466;2023-11-21T07:26:35;97280.81;;;12.82;69.97
12973;BME280;6551;51.056;9.466;2023-11-21T07:29:02;97272.88;;;12.87;70.01
12973;BME280;6551;51.056;9.466;2023-11-21T07:31:28;97287.59;;;12.73;69.18
12973;BME280;6551;51.056;9.466;2023-11-21T07:33:55;97292.38;;;12.71;69.23
12973;BME280;6551;51.056;9.466;2023-11-21T07:36:23;97288.13;;;12.58;69.69
12973;BME280;6551;51.056;9.466;2023-11-21T07:38:50;97291.00;;;12.68;69.93
12973;BME280;6551;51.056;9.466;2023-11-21T07:41:16;97290.66;;;12.65;69.84
12973;BME280;6551;51.056;9.466;2023-11-21T07:43:46;97289.38;;;12.84;70.38
12973;BME280;6551;51.056;9.466;2023-11-21T07:46:12;97289.72;;;12.87;70.42
12973;BME280;6551;51.056;9.466;2023-11-21T07:48:39;97301.94;;;13.00;70.16
12973;BME280;6551;51.056;9.466;2023-11-21T07:51:08;97297.09;;;13.14;70.67
12973;BME280;6551;51.056;9.466;2023-11-21T07:53:34;97305.94;;;13.14;69.92
12973;BME280;6551;51.056;9.466;2023-11-21T07:56:07;97304.88;;;13.32;69.72
12973;BME280;6551;51.056;9.466;2023-11-21T07:58:37;97312.66;;;13.33;69.47
12973;BME280;6551;51.056;9.466;2023-11-21T08:01:04;97316.97;;;13.34;69.49
12973;BME280;6551;51.056;9.466;2023-11-21T08:03:30;97322.94;;;13.41;69.09
12973;BME280;6551;51.056;9.466;2023-11-21T08:05:59;97320.84;;;13.43;68.77
12973;BME280;6551;51.056;9.466;2023-11-21T08:08:25;97324.81;;;13.41;68.60
12973;BME280;6551;51.056;9.466;2023-11-21T08:10:51;97330.16;;;13.41;68.45
12973;BME280;6551;51.056;9.466;2023-11-21T08:13:28;97329.06;;;13.59;68.45
12973;BME280;6551;51.056;9.466;2023-11-21T08:15:57;97330.84;;;13.70;68.36
12973;BME280;6551;51.056;9.466;2023-11-21T08:18:32;97334.88;;;13.72;68.13
12973;BME280;6551;51.056;9.466;2023-11-21T08:20:59;97339.25;;;13.78;67.95
12973;BME280;6551;51.056;9.466;2023-11-21T08:23:26;97336.72;;;13.88;67.79
12973;BME280;6551;51.056;9.466;2023-11-21T08:25:53;97337.69;;;13.99;67.02
12973;BME280;6551;51.056;9.466;2023-11-21T08:28:19;97335.94;;;14.10;67.48
12973;BME280;6551;51.056;9.466;2023-11-21T08:30:46;97337.47;;;14.05;66.51
12973;BME280;6551;51.056;9.466;2023-11-21T08:33:12;97337.13;;;14.19;66.49
12973;BME280;6551;51.056;9.466;2023-11-21T08:35:38;97337.47;;;14.27;65.93
12973;BME280;6551;51.056;9.466;2023-11-21T08:38:05;97335.88;;;14.26;66.22
12973;BME280;6551;51.056;9.466;2023-11-21T08:40:31;97335.09;;;14.31;65.85
12973;BME280;6551;51.056;9.466;2023-11-21T08:42:57;97336.47;;;14.12;65.17
12973;BME280;6551;51.056;9.466;2023-11-21T08:45:25;97337.78;;;14.09;65.59
12973;BME280;6551;51.056;9.466;2023-11-21T08:47:53;97337.53;;;14.11;65.55
12973;BME280;6551;51.056;9.466;2023-11-21T08:50:19;97350.25;;;14.20;65.80
12973;BME280;6551;51.056;9.466;2023-11-21T08:52:46;97352.06;;;14.36;65.60
12973;BME280;6551;51.056;9.466;2023-11-21T08:55:12;97353.31;;;14.29;64.33
12973;BME280;6551;51.056;9.466;2023-11-21T08:57:43;97356.00;;;14.50;65.10
12973;BME280;6551;51.056;9.466;2023-11-21T09:00:10;97354.44;;;14.54;65.32
12973;BME280;6551;51.056;9.466;2023-11-21T09:02:48;97352.19;;;14.68;64.25
12973;BME280;6551;51.056;9.466;2023-11-21T09:05:14;97354.38;;;14.71;64.31
12973;BME280;6551;51.056;9.466;2023-11-21T09:07:41;97357.59;;;14.73;63.74
12973;BME280;6551;51.056;9.466;2023-11-21T09:10:10;97362.44;;;14.76;63.23
12973;BME280;6551;51.056;9.466;2023-11-21T09:12:37;97359.72;;;14.71;63.37
12973;BME280;6551;51.056;9.466;2023-11-21T09:15:07;97365.69;;;14.78;63.87
12973;BME280;6551;51.056;9.466;2023-11-21T09:17:34;97361.22;;;14.62;63.55
12973;BME280;6551;51.056;9.466;2023-11-21T09:20:00;97362.31;;;14.66;63.74
12973;BME280;6551;51.056;9.466;2023-11-21T09:22:25;97368.53;;;14.72;64.00
12973;BME280;6551;51.056;9.466;2023-11-21T09:24:51;97371.38;;;14.60;63.59
12973;BME280;6551;51.056;9.466;2023-11-21T09:27:18;97372.53;;;14.69;63.94
12973;BME280;6551;51.056;9.466;2023-11-21T09:29:44;97375.47;;;14.68;63.50
12973;BME280;6551;51.056;9.466;2023-11-21T09:32:09;97375.81;;;14.71;63.90
12973;BME280;6551;51.056;9.466;2023-11-21T09:34:38;97385.84;;;14.86;63.81
12973;BME280;6551;51.056;9.466;2023-11-21T09:37:04;97387.75;;;14.85;63.03
12973;BME280;6551;51.056;9.466;2023-11-21T09:39:32;97389.66;;;14.63;63.98
12973;BME280;6551;51.056;9.466;2023-11-21T09:45:02;97385.06;;;14.85;63.67
12973;BME280;6551;51.056;9.466;2023-11-21T09:47:30;97393.66;;;14.87;63.51
12973;BME280;6551;51.056;9.466;2023-11-21T09:49:56;97380.13;;;14.77;63.42
12973;BME280;6551;51.056;9.466;2023-11-21T09:52:28;97381.03;;;14.61;63.54
12973;BME280;6551;51.056;9.466;2023-11-21T09:54:55;97396.56;;;14.59;64.02
12973;BME280;6551;51.056;9.466;2023-11-21T09:57:25;97392.56;;;14.61;63.94
12973;BME280;6551;51.056;9.466;2023-11-21T09:59:57;97395.56;;;14.65;63.77
12973;BME280;6551;51.056;9.466;2023-11-21T10:02:28;97402.72;;;14.59;64.58
12973;BME280;6551;51.056;9.466;2023-11-21T10:04:55;97404.78;;;14.52;64.51
12973;BME280;6551;51.056;9.466;2023-11-21T10:07:23;97397.38;;;14.59;64.15
12973;BME280;6551;51.056;9.466;2023-11-21T10:09:51;97399.19;;;14.54;64.38
12973;BME280;6551;51.056;9.466;2023-11-21T10:12:18;97396.25;;;14.34;65.33
12973;BME280;6551;51.056;9.466;2023-11-21T10:14:48;97400.78;;;14.55;65.03
12973;BME280;6551;51.056;9.466;2023-11-21T10:17:15;97394.81;;;14.48;64.85
12973;BME280;6551;51.056;9.466;2023-11-21T10:19:47;97401.09;;;14.37;64.71
12973;BME280;6551;51.056;9.466;2023-11-21T10:22:14;97398.31;;;14.48;65.56
12973;BME280;6551;51.056;9.466;2023-11-21T10:24:40;97393.44;;;14.45;65.42
12973;BME280;6551;51.056;9.466;2023-11-21T10:27:08;97406.34;;;14.48;65.66
12973;BME280;6551;51.056;9.466;2023-11-21T10:29:33;97411.88;;;14.63;65.99
12973;BME280;6551;51.056;9.466;2023-11-21T10:32:02;97415.78;;;14.78;65.33
12973;BME280;6551;51.056;9.466;2023-11-21T10:34:29;97412.16;;;14.89;65.60
12973;BME280;6551;51.056;9.466;2023-11-21T10:36:55;97410.34;;;14.94;64.61
12973;BME280;6551;51.056;9.466;2023-11-21T10:39:24;97410.09;;;14.96;64.74
12973;BME280;6551;51.056;9.466;2023-11-21T10:41:55;97411.97;;;14.95;64.36
12973;BME280;6551;51.056;9.466;2023-11-21T10:44:20;97417.06;;;14.97;64.50
12973;BME280;6551;51.056;9.466;2023-11-21T10:46:52;97421.84;;;14.90;64.98
12973;BME280;6551;51.056;9.466;2023-11-21T10:49:22;97427.66;;;14.60;64.80
12973;BME280;6551;51.056;9.466;2023-11-21T10:51:51;97429.59;;;14.64;65.22
12973;BME280;6551;51.056;9.466;2023-11-21T10:54:23;97432.06;;;14.49;65.56
12973;BME280;6551;51.056;9.466;2023-11-21T10:57:00;97428.09;;;14.52;66.30
12973;BME280;6551;51.056;9.466;2023-11-21T10:59:29;97432.06;;;14.49;66.13
12973;BME280;6551;51.056;9.466;2023-11-21T11:01:58;97433.25;;;14.37;66.30
12973;BME280;6551;51.056;9.466;2023-11-21T11:04:27;97435.56;;;14.50;66.74
12973;BME280;6551;51.056;9.466;2023-11-21T11:06:58;97440.19;;;14.54;66.31
12973;BME280;6551;51.056;9.466;2023-11-21T11:09:27;97436.69;;;14.54;66.50
12973;BME280;6551;51.056;9.466;2023-11-21T11:11:53;97438.63;;;14.58;66.73
12973;BME280;6551;51.056;9.466;2023-11-21T11:14:20;97440.47;;;14.58;66.42
12973;BME280;6551;51.056;9.466;2023-11-21T11:16:45;97431.78;;;14.46;66.71
12973;BME280;6551;51.056;9.466;2023-11-21T11:19:11;97435.69;;;14.60;66.85
12973;BME280;6551;51.056;9.466;2023-11-21T11:22:08;97431.38;;;14.81;66.56
12973;BME280;6551;51.056;9.466;2023-11-21T11:25:29;97435.25;;;14.68;66.45
12973;BME280;6551;51.056;9.466;2023-11-21T11:28:10;97437.84;;;14.41;67.29
12973;BME280;6551;51.056;9.466;2023-11-21T11:33:39;97440.63;;;14.30;68.21
12973;BME280;6551;51.056;9.466;2023-11-21T11:38:46;97445.69;;;14.26;67.89
12973;BME280;6551;51.056;9.466;2023-11-21T11:41:12;97452.00;;;14.20;68.13
12973;BME280;6551;51.056;9.466;2023-11-21T11:43:38;97449.88;;;14.22;67.95
12973;BME280;6551;51.056;9.466;2023-11-21T11:46:11;97450.81;;;14.11;68.19
12973;BME280;6551;51.056;9.466;2023-11-21T11:48:40;97452.28;;;14.02;68.37
12973;BME280;6551;51.056;9.466;2023-11-21T11:51:13;97456.88;;;14.23;68.05
12973;BME280;6551;51.056;9.466;2023-11-21T11:53:47;97457.31;;;14.15;68.42
12973;BME280;6551;51.056;9.466;2023-11-21T11:56:28;97460.09;;;14.25;68.59
12973;BME280;6551;51.056;9.466;2023-11-21T11:58:58;97460.59;;;14.22;68.51
12973;BME280;6551;51.056;9.466;2023-11-21T12:01:26;97454.69;;;14.20;68.69
12973;BME280;6551;51.056;9.466;2023-11-21T12:06:51;97455.88;;;14.07;69.53
12973;BME280;6551;51.056;9.466;2023-11-21T12:09:22;97462.41;;;14.00;69.47
12973;BME280;6551;51.056;9.466;2023-11-21T12:11:51;97461.53;;;13.78;69.76
12973;BME280;6551;51.056;9.466;2023-11-21T12:14:17;97463.56;;;14.04;69.72
12973;BME280;6551;51.056;9.466;2023-11-21T12:16:43;97465.06;;;14.17;70.13
12973;BME280;6551;51.056;9.466;2023-11-21T12:19:11;97464.41;;;14.26;69.78
12973;BME280;6551;51.056;9.466;2023-11-21T12:21:37;97462.47;;;14.22;69.36
12973;BME280;6551;51.056;9.466;2023-11-21T12:24:03;97465.78;;;13.90;69.31
12973;BME280;6551;51.056;9.466;2023-11-21T12:26:30;97467.53;;;14.18;69.50
12973;BME280;6551;51.056;9.466;2023-11-21T12:28:56;97468.00;;;14.15;69.17
12973;BME280;6551;51.056;9.466;2023-11-21T12:31:23;97464.28;;;13.99;68.98
12973;BME280;6551;51.056;9.466;2023-11-21T12:33:49;97464.44;;;14.10;69.46
12973;BME280;6551;51.056;9.466;2023-11-21T12:36:15;97468.25;;;14.14;69.84
12973;BME280;6551;51.056;9.466;2023-11-21T12:38:41;97463.91;;;13.74;70.23
12973;BME280;6551;51.056;9.466;2023-11-21T12:41:09;97467.63;;;13.90;70.27
12973;BME280;6551;51.056;9.466;2023-11-21T12:43:35;97473.88;;;13.95;70.15
12973;BME280;6551;51.056;9.466;2023-11-21T12:46:08;97465.97;;;14.22;70.08
12973;BME280;6551;51.056;9.466;2023-11-21T12:48:41;97472.28;;;14.16;70.27
12973;BME280;6551;51.056;9.466;2023-11-21T12:51:12;97472.13;;;14.23;69.94
12973;BME280;6551;51.056;9.466;2023-11-21T12:53:40;97482.53;;;14.02;69.67
12973;BME280;6551;51.056;9.466;2023-11-21T12:56:12;97485.09;;;14.31;69.83
12973;BME280;6551;51.056;9.466;2023-11-21T12:58:39;97489.44;;;14.32;69.56
12973;BME280;6551;51.056;9.466;2023-11-21T13:01:07;97485.69;;;14.33;69.18
12973;BME280;6551;51.056;9.466;2023-11-21T13:03:40;97487.97;;;14.41;69.27
12973;BME280;6551;51.056;9.466;2023-11-21T13:06:06;97486.75;;;14.32;68.81
12973;BME280;6551;51.056;9.466;2023-11-21T13:08:33;97483.00;;;14.33;69.14
12973;BME280;6551;51.056;9.466;2023-11-21T13:11:00;97490.44;;;14.31;68.47
12973;BME280;6551;51.056;9.466;2023-11-21T13:13:28;97492.66;;;14.34;68.71
12973;BME280;6551;51.056;9.466;2023-11-21T13:16:01;97492.31;;;14.30;68.89
12973;BME280;6551;51.056;9.466;2023-11-21T13:18:31;97497.13;;;14.28;69.04
12973;BME280;6551;51.056;9.466;2023-11-21T13:20:59;97501.16;;;14.31;69.21
12973;BME280;6551;51.056;9.466;2023-11-21T13:23:26;97502.88;;;14.20;68.89